Terminal Aerodrome Forecast
Issued by NWS Binghamton, NY

Home | Current Version | Previous Version | Text Only | Print | Product List | Glossary On
Versions: 1 2 3 4 5 6 7 8 9 10 11 12 13 14 15 16 17 18 19 20 21 22 23 24 25 26 27
190
FTUS41 KBGM 141203 AAA
TAFBGM
TAF AMD
KBGM 141203Z 1412/1512 32010KT P6SM OVC050
      TEMPO 1412/1414 3SM -SN OVC025
     FM141400 31012G20KT P6SM BKN040
     FM142300 29007KT P6SM BKN040=

USA.gov is the U.S. government's official web portal to all federal, state and local government web resources and services.